Lindenau, Texas
Current Conditions -  °F | °C
As of 11:51 PM on Friday 19 Dec 2014 (Local Time) from KVCT Reporting Station
Overcast Overcast  
Wind Chill: 54°   Ceiling: 1700
Heat Index: 54°   Visibility: 10mi
Dew Point: 49°   Wind: 12mph
Humidity: 83%   Direction: 360°N
Pressure: 30.15"   Gusts: NA
Location:  29.0941°N, 97.191°W
Report Text: KVCT 200551Z AUTO 36010KT 10SM OVC017 12/09 A3015 RMK AO2 SLP210 T01220094 10161 20122 401830122 51011 $
Loading
Personal Weather Stations






























Interactive Weather Map New forecast layout! Learn more

10-Day Weather Forecast

Advertisements
Track Severe Weather on mobile